Tiempo atmosférico en la estación meteorológica de Lagunas De Somoza, León (1020 m.)



Fecha
DESCASC
Temp. máxima en grados centígrados (hora)
DESCASC
Temp. mínima en grados centígrados (hora)
DESCASC
Temp. media en grados centígrados
DESCASC
Racha de viento máxima en m/sg (hora)
DESCASC
Velocidad máxima media en intervalos de 10 minutos(hora)
DESCASC
Precipitaciones diarias en mm
DESCASC
Precipitaciones de 00:00 a 06:00 en mm
DESCASC
Precipitaciones de 06:00 a 12:00 en mm
DESCASC
Precipitaciones de 12:00 a 18:00 en mm
DESCASC
Precipitaciones de 18:00 a 24:00 en mm
DESCASC
02-04-2020 14.9 (15:20) 5.5 (23:40) 10.2 8.06 (10:40) 4.17 (10:50) 2.2 2.1 0.1 0 0
01-04-2020 12.9 (15:20) 4.6 (04:40) 8.7 8.89 (00:10) 4.72 (00:10) 13.9 9.2 0.2 2 2.5
31-03-2020 7.4 (15:20) -4.2 (-00:0) 1.6 11.11 (14:10) 6.39 (15:10) 1.6 0 0 0.5 1.1
30-03-2020 7.2 (16:20) -1.5 (-00:0) 2.8 12.22 (19:40) 6.67 (18:30) 0.8 0.6 0.1 0.1 0
29-03-2020 17.1 (16:50) 0 (00:00) 8.6 10.28 (20:40) 6.11 (20:40) 0 0 0 0 0
28-03-2020 16.1 (17:30) -0.7 (-00:0) 7.7 5.83 (13:50) 3.06 (18:20) 0 0 0 0 0
27-03-2020 11.2 (16:30) -3.2 (-00:0) 4 13.61 (14:00) 6.39 (14:50) 0 0 0 0 0
26-03-2020 17.4 (16:20) 0 (00:00) 8.7 8.33 (03:40) 6.39 (01:20) 0 0 0 0 0
25-03-2020 18 (15:40) 2.4 (00:00) 10.2 10.83 (18:10) 7.5 (18:10) 0 0 0 0 0
24-03-2020 15.7 (15:50) 5.3 (00:00) 10.5 7.22 (14:10) 4.17 (14:30) 0 0 0 0 0
23-03-2020 14.3 (17:20) 2.6 (00:00) 8.5 6.11 (12:30) 3.61 (13:50) 0.1 0 0.1 0 0
22-03-2020 16.5 (16:10) 5.7 (06:30) 11.1 11.67 (16:50) 6.94 (17:10) 0.2 0 0 0 0.2
21-03-2020 12.7 (17:10) 5.5 (00:00) 9.1 5.28 (06:30) 3.33 (06:20) 0.1 0 0.1 0 0
20-03-2020 11.6 (14:30) 6.5 (00:00) 9.1 7.5 (15:30) 5 (15:30) 2.7 0.1 0.5 2.1 0
19-03-2020 17.8 (14:20) 5.4 (00:00) 11.6 6.94 (16:00) 4.17 (15:40) 0 0 0 0 0
18-03-2020 18.6 (15:40) 7.8 (00:00) 13.2 8.89 (14:30) 3.33 (16:30) 0 0 0 0 0
17-03-2020 14.5 (12:20) 6.1 (00:00) 10.3 10.56 (13:20) 6.39 (13:40) 0 0 0 0 0
16-03-2020 11.1 (16:10) 1.8 (00:00) 6.5 13.61 (11:30) 8.61 (05:10) 0 0 0 0 0
15-03-2020 15.5 (17:00) -0.5 (-00:0) 7.5 19.72 (19:20) 10.83 (18:50) 0 0 0 0 0
14-03-2020 17.9 (16:00) -0.5 (-00:0) 8.7 8.61 (13:50) 4.17 (13:50) 0.1 0 0.1 0 0
13-03-2020 16.8 (16:50) 4.2 (23:59) 10.5 5.56 (18:00) 3.61 (18:00) 0 0 0 0 0
12-03-2020 20.3 (15:50) 6.2 (00:00) 13.2 6.67 (20:30) 3.61 (20:30) 0 0 0 0 0
11-03-2020 22.1 (16:50) 4.2 (00:00) 13.2 6.11 (15:30) 3.33 (15:30) 0 0 0 0 0
10-03-2020 22.9 (16:30) 5.3 (00:00) 14.1 6.39 (21:10) 5 (00:20) 0 0 0 0 0
09-03-2020 15.6 (16:40) 3.3 (00:00) 9.5 18.06 (01:00) 10 (00:30) 0 0 0 0 0
08-03-2020 14.8 (13:40) 1.2 (00:00) 8 13.61 (23:59) 8.89 (15:50) 0 0 0 0 0
07-03-2020 17.3 (17:10) 1.8 (00:00) 9.5 11.94 (01:40) 8.06 (00:20) 0 0 0 0 0
06-03-2020 7.9 (16:50) 2.5 (00:00) 5.2 21.67 (07:20) 11.39 (08:00) 0.6 0.6 0 0 0
05-03-2020 12.6 (02:30) 4.4 (00:00) 8.5 18.61 (09:40) 12.22 (09:50) 2.1 0.3 0.8 0.6 0.4

Gráficas

Temp. máximas Temp. mínimas Temp. medias Precipitaciones Rachas de viento máximas Velocidades máximas media en intervalos de 10 minutos

Datos horarios

Fecha y hora oficial Temperatura (ºC) Velocidad del viento (km/h) Dirección del viento Racha (km/h) Dirección de racha Precipitación (mm) Presión (hPa) Tendencia (hPa) Humedad (%)
2020-04-03 23:00:00 5.5 0 Calma 4 Nordeste 0 900.5 0.8 83
2020-04-03 22:00:00 8 0 Calma 8 Sudeste 0 900.2 0.8 67
2020-04-03 21:00:00 9.6 9 Sudeste 17 Sudeste 0 899.7 0.2 59
2020-04-03 20:00:00 12.9 11 Sudeste 23 Sudeste 0 899.7 0.2 47
2020-04-03 19:00:00 13.8 11 Sudeste 24 Sudeste 0 899.4 -0.5 45
2020-04-03 18:00:00 14.3 11 Sudeste 25 Sudeste 0 899.5 -0.9 45
2020-04-03 17:00:00 14.3 13 Sudeste 27 Sudeste 0 899.5 -1.2 48
2020-04-03 16:00:00 13.8 10 Sudeste 21 Sudeste 0 899.9 -1.5 50
2020-04-03 15:00:00 12.4 12 Sudeste 19 Sudeste 0 900.4 -1.4 55
2020-04-03 14:00:00 11.3 7 Sudeste 19 Sudeste 0 900.7 -0.8 58
2020-04-03 13:00:00 9.6 8 Sur 19 Sur 0 901.4 0 61
2020-04-03 12:00:00 8.3 6 Sudeste 18 Sudeste 0 901.8 0.3 65
2020-04-03 11:00:00 6.2 3 Sudeste 14 Sur 0 901.5 0.6 74
2020-04-03 10:00:00 3.8 5 Sudoeste 9 Sudoeste 0 901.4 0.6 93
2020-04-03 09:00:00 2.2 5 Sudoeste 9 Oeste 0 901.5 0.8 94
2020-04-03 08:00:00 1.6 3 Oeste 14 Sur 0 900.9 0.1 93
2020-04-03 07:00:00 2.6 10 Sur 19 Sudeste 0 900.8 0 93
2020-04-03 06:00:00 2.6 6 Sur 11 Sudeste 0 900.7 -0.5 93
2020-04-03 05:00:00 3 7 Sur 9 Sur 0 900.8 -0.7 93
2020-04-03 04:00:00 2.1 3 Sudeste 10 Sudeste 0 900.8 -0.4 91
2020-04-03 03:00:00 2.6 0 Calma 4 Noroeste 0 901.2 -0.1 90
2020-04-03 02:00:00 2.4 0 Calma 5 Sudoeste 0 901.5 0.1 88
2020-04-03 01:00:00 4.7 0 Calma 6 Noroeste 0 901.2 0.3 82
2020-04-03 00:00:00 5.6 2 Noroeste 6 Noroeste 0 901.3 1.2 76
2020-04-02 23:00:00 6.5 0 Calma 9 Sudoeste 0 901.4 1.6 67
2020-04-02 22:00:00 7 4 Nordeste 19 Nordeste 0 900.9 1.6 58
2020-04-02 21:00:00 8.8 10 Nordeste 19 Nordeste 0 900.1 1 51
2020-04-02 20:00:00 10.9 13 Nordeste 23 Nordeste 0 899.8 0.9 46
2020-04-02 19:00:00 13 11 Nordeste 27 Este 0 899.3 0.4 45
2020-04-02 18:00:00 13.5 12 Nordeste 23 Nordeste 0 899.1 0.1 44
2020-04-02 17:00:00 13.1 13 Nordeste 28 Este 0 898.9 0 43
2020-04-02 16:00:00 14.6 13 Este 26 Nordeste 0 898.9 -0.3 44
2020-04-02 15:00:00 14 12 Nordeste 25 Nordeste 0 899 0.1 47
2020-04-02 14:00:00 12.7 14 Nordeste 26 Nordeste 0 898.9 0.4 51
2020-04-02 13:00:00 11 14 Nordeste 28 Nordeste 0 899.2 1.3 56
2020-04-02 12:00:00 10.9 12 Norte 26 Nordeste 0 898.9 1.5 58
2020-04-02 11:00:00 10 15 Nordeste 29 Nordeste 0 898.5 1.6 65
2020-04-02 10:00:00 9.1 14 Norte 21 Norte 0 897.9 1.1 78
2020-04-02 09:00:00 7 10 Norte 16 Norte 0 897.4 0.6 93
2020-04-02 08:00:00 6 5 Noroeste 7 Noroeste 0.1 896.9 0.2 96
2020-04-02 07:00:00 6 0 Calma 3 Noroeste 0 896.8 0 96
2020-04-02 06:00:00 6 0 Calma 5 Este 0.2 896.8 -0.3 94
2020-04-02 05:00:00 6 0 Calma 10 Noroeste 0.4 896.7 -0.6 94
2020-04-02 04:00:00 5.9 7 Noroeste 12 Noroeste 0.5 896.8 -0.7 94
2020-04-02 03:00:00 5.7 10 Noroeste 14 Oeste 0.2 897.1 -0.4 94
2020-04-02 02:00:00 5.9 10 Noroeste 14 Noroeste 0.2 897.3 0.1 94
2020-04-02 01:00:00 5.9 6 Norte 18 Norte 0.6 897.5 0.9 94
2020-04-02 00:00:00 6.1 11 Norte 25 Nordeste 0.3 897.5 1.5 92
2020-04-01 23:00:00 6.4 9 Norte 18 Norte 0 897.2 1 89
2020-04-01 22:00:00 6.5 3 Noroeste 14 Oeste 0.1 896.6 0.9 90
2020-04-01 21:00:00 7 5 Norte 12 Este 0.7 896 0.4 88
2020-04-01 20:00:00 7.2 5 Oeste 13 Noroeste 0.1 896.2 1.8 88
2020-04-01 19:00:00 7 5 Sudoeste 22 Sudoeste 1.3 895.7 1.2 91
2020-04-01 18:00:00 7.4 8 Sudeste 28 Sudeste 2 895.6 0.6 82
2020-04-01 17:00:00 11.9 8 Este 24 Nordeste 0 894.4 -1.1 52
2020-04-01 16:00:00 12.2 12 Este 26 Este 0 894.5 -1.3 52
2020-04-01 15:00:00 12 10 Este 24 Este 0 895 -0.9 55
2020-04-01 14:00:00 10 10 Este 19 Nordeste 0 895.5 -0.2 68
2020-04-01 13:00:00 9.2 8 Este 21 Este 0 895.8 0.4 76
2020-04-01 12:00:00 7.7 8 Este 13 Este 0 895.9 1.2 88
2020-04-01 11:00:00 6.9 0 Calma 10 Este 0 895.7 1.5 97
2020-04-01 10:00:00 5.5 7 Sudeste 11 Este 0 895.4 1.9 97
2020-04-01 09:00:00 5.3 4 Este 10 Este 0.1 894.7 1 97
2020-04-01 08:00:00 5.1 4 Sudeste 11 Sur 0 894.2 0.5 97
2020-04-01 07:00:00 5 3 Sur 9 Sudeste 0.1 893.5 0.1 97
2020-04-01 06:00:00 4.7 7 Sudeste 17 Sudeste 0.3 893.7 0.4 97
2020-04-01 05:00:00 4.6 12 Sudeste 20 Sudeste 1.8 893.7 0.8 97
2020-04-01 04:00:00 4.8 6 Sur 21 Sudeste 2.8 893.4 0.5 97
2020-04-01 03:00:00 4.8 12 Sudeste 27 Sudeste 2.3 893.3 0.4 97
2020-04-01 02:00:00 4.8 13 Este 28 Este 1.5 892.9 0.1 97
2020-04-01 01:00:00 5 13 Sudeste 32 Este 0.5 892.9 0.5 97
2020-04-01 00:00:00 5.1 13 Este 37 Este 0 892.9 1.1 97
2020-03-31 23:00:00 5.2 13 Este 33 Este 0 892.8 1.2 97
2020-03-31 22:00:00 5.2 14 Este 35 Este 0.2 892.4 1.3 97
2020-03-31 21:00:00 5 15 Este 28 Este 0.1 891.8 0.9 97
2020-03-31 20:00:00 4.9 13 Este 28 Este 0.4 891.6 1.1 97
2020-03-31 19:00:00 4.7 15 Este 34 Sudeste 0.4 891.1 0.7 96
2020-03-31 18:00:00 4.9 22 Sudeste 35 Sudeste 0.5 890.9 0.3 93
2020-03-31 17:00:00 6.3 17 Este 39 Sudeste 0 890.5 -0.3 83
2020-03-31 16:00:00 6.6 21 Sudeste 39 Sudeste 0 890.4 -0.7 68
2020-03-31 15:00:00 7.1 20 Sudeste 40 Sudeste 0 890.6 -0.8 64
2020-03-31 14:00:00 6.2 15 Este 30 Sudeste 0 890.8 -0.9 65
2020-03-31 13:00:00 4.9 13 Este 32 Este 0 891.1 -1 66
2020-03-31 12:00:00 3.4 15 Este 28 Nordeste 0 891.4 -0.8 67
2020-03-31 11:00:00 1.3 13 Este 23 Este 0 891.7 -0.3 71
2020-03-31 10:00:00 0 6 Nordeste 20 Este 0 892.1 0 78
2020-03-31 09:00:00 -0.7 6 Este 15 Este 0 892.2 -0.3 80
2020-03-31 08:00:00 -1.3 5 Nordeste 10 Nordeste 0 892 -1 83
2020-03-31 07:00:00 -1.3 4 Este 8 Este 0 892.1 -1.9 84
2020-03-31 06:00:00 -1.6 3 Noroeste 5 Noroeste 0 892.5 -2.6 88
2020-03-31 05:00:00 -2.7 2 Noroeste 6 Noroeste 0 893 -2.9 88
2020-03-31 04:00:00 -4.2 4 Noroeste 8 Noroeste 0 894 -2.3 85
2020-03-31 03:00:00 -3.2 5 Norte 9 Nordeste 0 895.1 -1.9 81
2020-03-31 02:00:00 -2.8 3 Nordeste 9 Norte 0 895.9 -1.5 77
2020-03-31 01:00:00 -2 8 Norte 14 Nordeste 0 896.3 -1.2 73
2020-03-31 00:00:00 -1.5 7 Nordeste 16 Nordeste 0 897 -0.1 67
2020-03-30 23:00:00 -1.1 10 Nordeste 20 Nordeste 0 897.4 0.3 64
2020-03-30 22:00:00 -0.7 11 Nordeste 28 Nordeste 0 897.5 0.4 61
2020-03-30 21:00:00 0.8 17 Nordeste 35 Nordeste 0 897.1 0.1 57
2020-03-30 20:00:00 2.3 21 Nordeste 44 Nordeste 0 897.1 -0.3 48
2020-03-30 19:00:00 3.9 23 Nordeste 40 Nordeste 0 897.1 -0.7 48
2020-03-30 18:00:00 5.9 17 Nordeste 37 Nordeste 0 897 -1.7 46
2020-03-30 17:00:00 6.3 12 Nordeste 34 Nordeste 0.1 897.4 -2 45
2020-03-30 16:00:00 6.3 18 Nordeste 36 Nordeste 0 897.8 -2.2 47
2020-03-30 15:00:00 5.8 14 Nordeste 33 Nordeste 0 898.7 -1.9 51
2020-03-30 14:00:00 4.8 14 Nordeste 29 Este 0 899.4 -1.2 53
2020-03-30 13:00:00 4.3 14 Nordeste 28 Este 0 900 -0.8 59
2020-03-30 12:00:00 2.6 10 Nordeste 17 Nordeste 0 900.6 -0.4 65
2020-03-30 11:00:00 2.1 11 Nordeste 25 Nordeste 0.1 900.6 0.1 71
2020-03-30 10:00:00 1.7 5 Nordeste 13 Nordeste 0 900.8 0.1 80
2020-03-30 09:00:00 1.4 9 Nordeste 21 Este 0 901 0.2 79
2020-03-30 08:00:00 2.2 11 Nordeste 15 Nordeste 0 900.5 -0.5 76
2020-03-30 07:00:00 2.4 10 Nordeste 27 Este 0 900.7 -0.5 76
2020-03-30 06:00:00 3 14 Este 27 Este 0.1 900.8 -0.5 76
2020-03-30 05:00:00 2.8 14 Este 26 Este 0.5 901 -0.8 85
2020-03-30 04:00:00 4.2 15 Este 25 Este 0 901.2 -0.9 79
2020-03-30 03:00:00 5.3 4 Sur 10 Sudeste 0 901.3 -1 79
2020-03-30 02:00:00 5.4 6 Sur 11 Sur 0 901.8 -0.4 77
2020-03-30 01:00:00 5.6 4 Sur 10 Sur 0 902.1 0.2 76
2020-03-30 00:00:00 5.1 5 Sudeste 13 Sudeste 0 902.3 0.8 74
2020-03-29 23:00:00 6.1 2 Sur 13 Este 0 902.2 1.4 69
2020-03-29 22:00:00 7.6 6 Este 27 Nordeste 0 901.9 1.6 63
2020-03-29 21:00:00 9.5 17 Nordeste 37 Este 0 901.5 1.3 54
2020-03-29 20:00:00 12.6 15 Nordeste 28 Este 0 900.8 0.2 40
2020-03-29 19:00:00 14.9 6 Sur 18 Sur 0 900.3 -0.7 34
2020-03-29 18:00:00 16.1 3 Nordeste 19 Sudeste 0 900.2 -1.5 33
2020-03-29 17:00:00 16 5 Sudeste 21 Sur 0 900.6 -1.6 34
2020-03-29 16:00:00 16.5 7 Sur 19 Este 0 901 -1.6 36
2020-03-29 15:00:00 15.4 5 Sudoeste 18 Sur 0 901.7 -1.3 36
2020-03-29 14:00:00 14.6 5 Este 13 Sudeste 0 902.2 -1.1 39
2020-03-29 13:00:00 12.8 5 Sudeste 16 Sudeste 0 902.6 -0.4 45
2020-03-29 12:00:00 11.5 7 Sur 15 Sudeste 0 903 0 48
2020-03-29 11:00:00 9.7 8 Sur 13 Sur 0 903.3 0.7 51
2020-03-29 10:00:00 8.8 5 Sur 7 Sudeste 0 903 0.6 57
2020-03-29 09:00:00 3.6 0 Calma 4 Nordeste 0 903 0.5 84
2020-03-29 08:00:00 0 0 Calma 5 Oeste 0 902.6 -0.2 87
2020-03-29 07:00:00 0.7 3 Noroeste 9 Noroeste 0 902.4 -0.7 84
2020-03-29 06:00:00 1.3 7 Noroeste 10 Noroeste 0 902.5 -0.6 80
2020-03-29 05:00:00 1.2 9 Noroeste 12 Oeste 0 902.8 -0.4 79
2020-03-29 03:00:00 2.3 4 Noroeste 7 Noroeste 0 903.1 0 76
2020-03-29 01:00:00 2 0 Calma 8 Noroeste 0 903.2 0.2 77
2020-03-29 00:00:00 2.5 4 Noroeste 6 Norte 0 903.1 0.5 78
2020-03-28 23:00:00 2.5 0 Calma 3 Norte 0 903.1 1.2 76
2020-03-28 22:00:00 3.9 2 Noroeste 8 Noroeste 0 903 1.3 70
2020-03-28 21:00:00 5.6 4 Noroeste 6 Noroeste 0 902.6 1.5 63
2020-03-28 20:00:00 10.3 0 Calma 8 Sur 0 901.9 1.1 38
2020-03-28 19:00:00 13.1 6 Sudeste 19 Sudeste 0 901.7 0.7 31
2020-03-28 18:00:00 14.7 10 Sudeste 15 Sudeste 0 901.1 -0.1 28
2020-03-28 17:00:00 15.5 7 Sudeste 17 Sudoeste 0 900.8 -0.5 27
2020-03-28 16:00:00 15.4 0 Calma 17 Sudeste 0 901 -0.4 26
2020-03-28 15:00:00 14.6 4 Sur 17 Sur 0 901.2 -0.6 28
2020-03-28 14:00:00 14.2 8 Sudeste 21 Sudeste 0 901.3 -0.6 31
2020-03-28 13:00:00 13.3 9 Sur 18 Sur 0 901.4 -0.4 34
2020-03-28 12:00:00 12.5 3 Sudeste 11 Sudeste 0 901.8 0.3 41
2020-03-28 11:00:00 10.8 0 Calma 9 Nordeste 0 901.9 0.8 48
2020-03-28 10:00:00 9.4 4 Este 9 Este 0 901.8 1.1 52
2020-03-28 09:00:00 7.2 0 Calma 6 Noroeste 0 901.5 1.3 67
2020-03-28 08:00:00 0.9 5 Noroeste 7 Noroeste 0 901.1 1.2 84
2020-03-28 07:00:00 -0.2 5 Noroeste 9 Norte 0 900.7 1 82
2020-03-28 06:00:00 0.9 8 Norte 11 Norte 0 900.2 0.1 78
2020-03-28 05:00:00 -0.2 2 Norte 7 Norte 0 899.9 -0.3 81
2020-03-28 04:00:00 0.2 5 Norte 8 Norte 0 899.7 0 81
2020-03-28 03:00:00 0 3 Norte 8 Norte 0 900.1 0.6 79
2020-03-28 02:00:00 -0.7 5 Noroeste 9 Noroeste 0 900.2 1 79
2020-03-28 01:00:00 0 2 Nordeste 9 Noroeste 0 899.7 1 79
2020-03-28 00:00:00 -0.1 8 Noroeste 10 Noroeste 0 899.5 1.5 77
2020-03-27 23:00:00 0.9 5 Noroeste 17 Noroeste 0 899.2 1.8 72
2020-03-27 22:00:00 1.8 3 Noroeste 5 Noroeste 0 898.7 2 65
2020-03-27 21:00:00 4.2 3 Este 8 Este 0 898 1.5 53
2020-03-27 20:00:00 6.9 4 Este 18 Sudeste 0 897.4 1.3 42
2020-03-27 19:00:00 9.3 14 Sudeste 24 Sudeste 0 896.7 0.3 37
2020-03-27 18:00:00 10.3 15 Sudeste 28 Sudeste 0 896.5 0.1 35
2020-03-27 17:00:00 10.3 18 Sudeste 36 Sudeste 0 896.1 -0.3 35
2020-03-27 16:00:00 10.1 18 Sudeste 32 Sudeste 0 896.4 -0.3 36
2020-03-27 15:00:00 10.1 21 Sudeste 40 Sudeste 0 896.4 -1 35
2020-03-27 14:00:00 9.1 16 Sudeste 49 Sur 0 896.4 -0.9 41
2020-03-27 13:00:00 8.3 17 Este 30 Este 0 896.7 -0.3 43
2020-03-27 12:00:00 7 16 Este 32 Sudeste 0 897.4 0.8 47
2020-03-27 11:00:00 4.9 17 Sudeste 33 Este 0 897.3 0.9 51
2020-03-27 10:00:00 4.2 14 Este 27 Este 0 897 0.8 55
2020-03-27 09:00:00 2.6 9 Este 19 Sudeste 0 896.6 0.7 70
2020-03-27 08:00:00 -0.6 0 Calma 8 Noroeste 0 896.4 0.7 90
2020-03-27 07:00:00 -1.3 4 Noroeste 7 Noroeste 0 896.2 0.8 93
2020-03-27 06:00:00 -2.4 3 Oeste 5 Noroeste 0 895.9 0.4 90
2020-03-27 05:00:00 -2.6 2 Sudeste 5 Sudeste 0 895.7 0.1 87
2020-03-27 04:00:00 -2.1 4 Noroeste 8 Noroeste 0 895.4 -0.4 85
2020-03-27 03:00:00 -1.8 5 Noroeste 9 Noroeste 0 895.5 -0.5 85
2020-03-27 02:00:00 -0.9 8 Noroeste 14 Oeste 0 895.6 -0.3 83
2020-03-27 01:00:00 -0.1 2 Noroeste 7 Noroeste 0 895.8 0.2 79
2020-03-27 00:00:00 0.6 0 Calma 10 Nordeste 0 896 0.7 73
2020-03-26 23:00:00 3.1 4 Sudeste 12 Sudeste 0 895.9 1.4 61
2020-03-26 22:00:00 4.8 4 Sudeste 14 Sudeste 0 895.6 1.6 56
2020-03-26 21:00:00 7 2 Sur 21 Este 0 895.3 1.8 49
2020-03-26 20:00:00 8.9 13 Este 30 Este 0 894.5 0.7 45
2020-03-26 19:00:00 13.5 10 Nordeste 21 Noroeste 0 894 0.1 31
2020-03-26 18:00:00 16.2 10 Noroeste 27 Noroeste 0 893.5 -0.7 25
2020-03-26 17:00:00 16.8 8 Nordeste 20 Este 0 893.8 -0.6 23
2020-03-26 16:00:00 17.2 6 Este 25 Nordeste 0 893.9 -1.1 26
2020-03-26 15:00:00 16.6 4 Norte 20 Noroeste 0 894.2 -1.3 24
2020-03-26 14:00:00 16.6 5 Sudeste 20 Nordeste 0 894.4 -1.5 28
2020-03-26 13:00:00 14.2 3 Noroeste 13 Nordeste 0 895 -1.2 33
2020-03-26 12:00:00 12.8 5 Sudeste 13 Este 0 895.5 -0.7 40
2020-03-26 11:00:00 11 6 Nordeste 13 Sudeste 0 895.9 -0.8 43
2020-03-26 10:00:00 9 7 Sudeste 10 Este 0 896.2 -0.3 43
2020-03-26 09:00:00 5.9 0 Calma 4 Sudeste 0 896.2 0.4 47
2020-03-26 08:00:00 0.5 2 Norte 12 Sudeste 0 896.7 0.8 53
2020-03-26 07:00:00 1.1 5 Sur 24 Noroeste 0 896.5 -0.1 39
2020-03-26 06:00:00 6 20 Noroeste 28 Noroeste 0 895.8 -1.3 31
2020-03-26 05:00:00 6.7 15 Noroeste 22 Noroeste 0 895.9 -1.8 29
2020-03-26 04:00:00 7.7 13 Noroeste 30 Noroeste 0 896.6 -1.3 28
2020-03-26 03:00:00 5 13 Noroeste 25 Noroeste 0 897.1 -1.2 40
2020-03-26 02:00:00 6.5 19 Noroeste 30 Noroeste 0 897.7 -0.8 45
2020-03-26 01:00:00 6.3 21 Noroeste 29 Noroeste 0 897.9 -0.7 41
2020-03-26 00:00:00 7.7 20 Noroeste 32 Noroeste 0 898.3 -0.1 36
2020-03-25 23:00:00 5.4 12 Noroeste 17 Noroeste 0 898.5 0.2 45
2020-03-25 22:00:00 7.5 12 Oeste 31 Noroeste 0 898.6 0.6 51
2020-03-25 21:00:00 10.8 19 Noroeste 29 Noroeste 0 898.4 0.7 42
2020-03-25 20:00:00 11.2 11 Norte 28 Noroeste 0 898.3 0.6 45
2020-03-25 19:00:00 15.1 18 Noroeste 39 Noroeste 0 898 0.1 38
2020-03-25 18:00:00 16.4 22 Noroeste 37 Noroeste 0 897.7 -0.6 37
2020-03-25 17:00:00 17.6 21 Noroeste 36 Oeste 0 897.7 -0.8 34
2020-03-25 16:00:00 17 17 Noroeste 33 Noroeste 0 897.9 -1.1 36
2020-03-25 15:00:00 17.4 14 Noroeste 32 Noroeste 0 898.3 -1.2 37
2020-03-25 14:00:00 16.4 22 Noroeste 34 Noroeste 0 898.5 -1.2 39
2020-03-25 13:00:00 15.8 20 Noroeste 35 Noroeste 0 899 -0.7 42
2020-03-25 12:00:00 14.9 20 Noroeste 35 Noroeste 0 899.5 -0.1 45
2020-03-25 11:00:00 14.5 18 Noroeste 34 Noroeste 0 899.7 -0.1 48
2020-03-25 10:00:00 13 19 Noroeste 31 Noroeste 0 899.7 -0.2 54
2020-03-25 09:00:00 11.4 16 Noroeste 22 Noroeste 0 899.6 -0.4 64
2020-03-25 08:00:00 5.1 3 Noroeste 8 Noroeste 0 899.8 -0.4 85
2020-03-25 07:00:00 4.6 5 Noroeste 8 Noroeste 0 899.9 -0.6 91
2020-03-25 06:00:00 2.5 3 Noroeste 6 Norte 0 900 -0.7 91
2020-03-25 05:00:00 3.7 5 Noroeste 6 Noroeste 0 900.2 -0.8 91
2020-03-25 04:00:00 2.9 4 Noroeste 8 Noroeste 0 900.5 -0.8 90
2020-03-25 03:00:00 4 5 Noroeste 10 Noroeste 0 900.7 -0.7 88
2020-03-25 02:00:00 4.2 9 Noroeste 10 Noroeste 0 901 -0.3 88
2020-03-25 01:00:00 3.9 8 Noroeste 11 Noroeste 0 901.3 0.1 87
2020-03-25 00:00:00 5.4 5 Noroeste 8 Norte 0 901.4 0.4 82
2020-03-24 23:00:00 6.3 3 Noroeste 10 Noroeste 0 901.3 0.7 82
2020-03-24 22:00:00 5.7 3 Noroeste 10 Noroeste 0 901.2 0.8 80
2020-03-24 21:00:00 6.2 7 Noroeste 8 Noroeste 0 901 0.9 76
2020-03-24 20:00:00 10.8 2 Sudeste 10 Sur 0 900.6 0.5 52
2020-03-24 19:00:00 14.4 7 Sudeste 18 Sudeste 0 900.4 0 44
2020-03-24 18:00:00 15.5 8 Este 19 Sudeste 0 900.1 -0.8 42
2020-03-24 17:00:00 14.6 7 Este 23 Sudeste 0 900.1 -1.3 44
2020-03-24 16:00:00 14 11 Nordeste 21 Este 0 900.4 -1.2 46
2020-03-24 15:00:00 14.3 9 Este 26 Sudeste 0 900.9 -0.8 50
2020-03-24 14:00:00 13.2 9 Este 18 Este 0 901.4 -0.9 55
2020-03-24 13:00:00 12.1 13 Sudeste 22 Sudeste 0 901.6 -0.9 61
2020-03-24 12:00:00 10.9 10 Este 19 Este 0 901.7 -0.5 68
2020-03-24 11:00:00 9.6 13 Sudeste 22 Sudeste 0 902.3 0.2 76
2020-03-24 10:00:00 8.6 10 Este 22 Sudeste 0 902.5 1 82
2020-03-24 09:00:00 8.1 7 Este 14 Nordeste 0 902.2 0.7 85
2020-03-24 08:00:00 7.5 7 Este 15 Este 0 902.1 0.8 87
2020-03-24 07:00:00 7.3 8 Este 15 Este 0 901.5 0.1 88
2020-03-24 06:00:00 7.4 9 Este 18 Este 0 901.5 -0.1 88
2020-03-24 05:00:00 7.4 10 Este 18 Este 0 901.3 -0.4 88
2020-03-24 04:00:00 7.5 11 Este 17 Este 0 901.4 -0.2 87
2020-03-24 03:00:00 7.7 5 Este 9 Sudeste 0 901.6 0.1 84
2020-03-24 02:00:00 7.9 3 Este 9 Nordeste 0 901.7 0.6 80
2020-03-24 01:00:00 8.2 6 Sudeste 14 Sudeste 0 901.6 0.9 79
2020-03-24 00:00:00 8.5 6 Sudeste 18 Sudeste 0 901.5 1.1 77
2020-03-23 23:00:00 9.5 13 Sudeste 20 Sudeste 0 901.1 1.2 75
2020-03-23 22:00:00 8 0 Calma 6 Sudeste 0 900.7 1.2 78
2020-03-23 21:00:00 7.9 0 Calma 4 Este 0 900.4 0.9 72
2020-03-23 20:00:00 10.2 0 Calma 10 Sudeste 0 899.9 0.4 56
2020-03-23 19:00:00 12.2 8 Sudeste 16 Sudeste 0 899.5 -0.1 48
2020-03-23 18:00:00 13.6 7 Sudeste 21 Este 0 899.5 -0.4 45
2020-03-23 17:00:00 13.6 10 Este 22 Sudeste 0 899.5 -0.7 48
2020-03-23 16:00:00 13.7 10 Este 21 Este 0 899.6 -1.1 48
2020-03-23 15:00:00 13.6 8 Este 18 Este 0 899.9 -1 50
2020-03-23 14:00:00 12.9 9 Sudeste 21 Sudeste 0 900.2 -1 50
2020-03-23 13:00:00 12.6 8 Este 22 Sudeste 0 900.7 -0.6 53
2020-03-23 12:00:00 12 6 Este 18 Este 0 900.9 0.1 59
2020-03-23 11:00:00 10.3 4 Nordeste 13 Este 0 901.2 0.7 63
2020-03-23 10:00:00 8.6 6 Este 13 Este 0.1 901.3 1.2 70
2020-03-23 09:00:00 8.8 5 Este 11 Sudeste 0 900.8 1.1 68
2020-03-23 08:00:00 5.8 2 Nordeste 5 Nordeste 0 900.5 1.2 87
2020-03-23 07:00:00 3.6 0 Calma 8 Noroeste 0 900.1 0.7 88
2020-03-23 06:00:00 4 4 Noroeste 8 Noroeste 0 899.7 0.3 90
2020-03-23 05:00:00 6.2 3 Oeste 5 Noroeste 0 899.3 -0.3 94
2020-03-23 04:00:00 5.4 4 Noroeste 8 Noroeste 0 899.4 -0.3 94
2020-03-23 03:00:00 2.9 5 Noroeste 7 Noroeste 0 899.4 -0.4 94
2020-03-23 02:00:00 3 5 Noroeste 9 Noroeste 0 899.6 0.1 93
2020-03-23 01:00:00 3.8 8 Noroeste 9 Noroeste 0 899.7 0.6 90
2020-03-23 00:00:00 5.8 5 Noroeste 8 Noroeste 0 899.8 1.6 84
2020-03-22 23:00:00 7.7 6 Nordeste 12 Nordeste 0 899.5 2.1 76
2020-03-22 22:00:00 8.6 8 Nordeste 14 Nordeste 0 899.1 1.4 70
2020-03-22 21:00:00 9.5 10 Norte 21 Norte 0 898.2 1.1 66
2020-03-22 20:00:00 9.3 15 Noroeste 30 Noroeste 0 897.4 0.8 74
2020-03-22 19:00:00 9.5 12 Noroeste 27 Norte 0.2 897.7 1.5 76
2020-03-22 18:00:00 11.8 15 Noroeste 41 Sudeste 0 897.1 0.7 53
2020-03-22 17:00:00 12 24 Sudeste 42 Este 0 896.6 -0.4 46
2020-03-22 16:00:00 16.4 4 Sudeste 20 Sur 0 896.2 -1 42
2020-03-22 15:00:00 15.5 7 Sudeste 23 Sudeste 0 896.4 -1.1 45
2020-03-22 14:00:00 14.8 9 Este 24 Sudeste 0 897 -0.4 47
2020-03-22 13:00:00 14.3 4 Nordeste 19 Este 0 897.2 0.1 49
2020-03-22 12:00:00 12.9 8 Este 18 Este 0 897.5 0.9 57
2020-03-22 11:00:00 12.6 7 Este 15 Este 0 897.4 1 63
2020-03-22 10:00:00 11.6 3 Este 10 Este 0 897.1 0.9 72
2020-03-22 09:00:00 8.9 5 Noroeste 13 Noroeste 0 896.6 0.8 93
2020-03-22 08:00:00 6.6 2 Norte 10 Norte 0 896.4 0.9 96
2020-03-22 07:00:00 6.8 6 Norte 12 Norte 0 896.2 0.5 96
2020-03-22 06:00:00 6.2 7 Norte 14 Nordeste 0 895.8 0 96
2020-03-22 05:00:00 6.5 8 Nordeste 13 Norte 0 895.5 -0.3 94
2020-03-22 04:00:00 7.5 7 Nordeste 15 Nordeste 0 895.7 -0.1 94
2020-03-22 03:00:00 6.7 6 Norte 9 Norte 0 895.8 0.1 94
2020-03-22 02:00:00 7.1 3 Norte 6 Noroeste 0 895.8 0.1 93
2020-03-22 01:00:00 7.4 4 Sur 15 Sudeste 0 895.8 0.2 93
2020-03-22 00:00:00 7.5 5 Norte 11 Noroeste 0 895.7 0.6 93
2020-03-21 23:00:00 5.6 3 Noroeste 5 Noroeste 0 895.7 1 91
2020-03-21 22:00:00 6 4 Noroeste 6 Noroeste 0 895.6 1.2 88
2020-03-21 21:00:00 8.5 0 Calma 6 Noroeste 0 895.1 0.9 85
2020-03-21 20:00:00 10.2 0 Calma 6 Noroeste 0 894.7 0.5 79
2020-03-21 19:00:00 11.3 4 Sur 5 Sur 0 894.4 -0.2 70
2020-03-21 18:00:00 12.1 3 Sur 7 Sur 0 894.2 -0.9 66
2020-03-21 17:00:00 12 5 Sudoeste 9 Sur 0 894.2 -1.5 67
2020-03-21 16:00:00 11.1 5 Oeste 8 Oeste 0 894.6 -1.3 76
2020-03-21 15:00:00 10 0 Calma 8 Sudoeste 0 895.1 -1 82
2020-03-21 14:00:00 9.9 5 Sudeste 12 Sudeste 0 895.7 -0.3 82
2020-03-21 13:00:00 9.8 5 Sudeste 12 Sur 0 895.9 0 84
2020-03-21 12:00:00 9.2 7 Sudeste 16 Sudeste 0 896.1 0.2 93
2020-03-21 11:00:00 8.3 9 Sudeste 17 Este 0 896 0.1 96
2020-03-21 10:00:00 7.9 9 Este 16 Este 0 895.9 0 97
2020-03-21 09:00:00 6.9 6 Este 12 Este 0 895.9 0.3 97
2020-03-21 08:00:00 6.6 6 Este 13 Sudeste 0 895.9 0 97
2020-03-21 07:00:00 7 9 Sudeste 19 Sudeste 0.1 895.9 -0.4 97
2020-03-21 06:00:00 7.3 11 Este 18 Sudeste 0 895.6 -1.1 97
2020-03-21 05:00:00 7.9 9 Este 16 Sudeste 0 895.9 -0.9 97
2020-03-21 04:00:00 8.2 8 Este 17 Este 0 896.3 -0.9 97
2020-03-21 03:00:00 8.2 3 Sudeste 9 Este 0 896.7 -0.9 97
2020-03-21 02:00:00 8.1 4 Nordeste 6 Nordeste 0 896.8 -0.8 97
2020-03-21 01:00:00 7.6 0 Calma 4 Sudeste 0 897.2 -0.6 97
2020-03-21 00:00:00 6.6 0 Calma 5 Nordeste 0 897.6 0 96
2020-03-20 23:00:00 8.8 0 Calma 6 Nordeste 0 897.6 0.2 96
2020-03-20 22:00:00 8.8 5 Nordeste 9 Nordeste 0 897.8 0.3 96
2020-03-20 21:00:00 9 3 Nordeste 7 Nordeste 0 897.6 0.1 96
2020-03-20 20:00:00 8.9 3 Sudeste 9 Sudeste 0 897.4 -0.4 94
2020-03-20 19:00:00 9.7 5 Sudeste 13 Sudeste 0 897.5 -0.4 93
2020-03-20 18:00:00 10.1 9 Sudeste 13 Sudeste 0 897.5 -0.6 93
2020-03-20 17:00:00 10.1 4 Sur 17 Sur 1.8 897.8 -0.9 93
2020-03-20 16:00:00 10.5 10 Sur 27 Sudeste 0.2 897.9 -1.1 87
2020-03-20 15:00:00 11.1 12 Este 21 Sudeste 0 898.1 -1.2 78
2020-03-20 14:00:00 10.4 5 Sudeste 12 Sudeste 0 898.7 -0.7 87
2020-03-20 13:00:00 9.5 0 Calma 11 Este 0.1 899 -0.4 92
2020-03-20 12:00:00 8.7 7 Sudeste 12 Sudeste 0 899.3 0.1 94
2020-03-20 11:00:00 8.1 6 Este 13 Sudeste 0 899.4 0.5 94
2020-03-20 10:00:00 7.8 6 Este 12 Este 0.5 899.4 0.7 93
2020-03-20 09:00:00 7.6 5 Este 10 Nordeste 0 899.2 0.4 92
2020-03-20 08:00:00 7.3 6 Nordeste 13 Nordeste 0 898.9 -0.1 91
2020-03-20 07:00:00 7 5 Norte 14 Nordeste 0 898.7 -0.4 91
2020-03-20 06:00:00 7.5 6 Nordeste 10 Nordeste 0.1 898.8 -0.6 85
2020-03-20 05:00:00 8.1 2 Nordeste 6 Nordeste 0 899 -0.6 80
2020-03-20 04:00:00 8 2 Norte 12 Nordeste 0 899.1 -0.7 79
2020-03-20 03:00:00 8.1 8 Nordeste 14 Nordeste 0 899.4 -0.8 79
2020-03-20 02:00:00 7.9 2 Nordeste 6 Nordeste 0 899.6 -1.2 90
2020-03-20 01:00:00 8.3 0 Calma 4 Nordeste 0 899.8 -1 91
2020-03-20 00:00:00 9.6 0 Calma 4 Norte 0 900.2 -0.6 90
2020-03-19 23:00:00 9.3 2 Norte 6 Noroeste 0 900.8 0 88
2020-03-19 22:00:00 9.1 4 Noroeste 7 Noroeste 0 900.8 0.1 87
2020-03-19 21:00:00 10.3 0 Calma 10 Sudeste 0 900.8 0.1 79
2020-03-19 20:00:00 11.7 6 Este 16 Sudeste 0 900.8 -0.4 72
2020-03-19 19:00:00 13.2 12 Sudeste 18 Sudeste 0 900.7 -0.9 65
2020-03-19 18:00:00 14.7 10 Sudeste 18 Sudeste 0 900.7 -1.3 61
2020-03-19 17:00:00 15.4 12 Sudeste 20 Sudeste 0 901.2 -1.6 54
2020-03-19 16:00:00 16.5 13 Sudeste 25 Sur 0 901.6 -2 55
2020-03-19 15:00:00 17.5 10 Este 23 Este 0 902 -2.3 51
2020-03-19 14:00:00 17.5 10 Este 19 Este 0 902.8 -2 52
2020-03-19 13:00:00 16.1 7 Nordeste 14 Sudeste 0 903.6 -1.3 57
2020-03-19 12:00:00 14.6 6 Nordeste 13 Este 0 904.3 -0.2 62
2020-03-19 11:00:00 13.9 6 Este 12 Nordeste 0 904.8 -0.1 66
2020-03-19 10:00:00 12.3 3 Nordeste 8 Nordeste 0 904.9 -0.1 72
2020-03-19 09:00:00 10 5 Norte 8 Norte 0 904.5 -0.6 91
2020-03-19 08:00:00 7 4 Norte 9 Nordeste 0 904.9 -0.1 94
2020-03-19 07:00:00 6.4 4 Norte 8 Norte 0 905 -0.2 94
2020-03-19 06:00:00 5.5 0 Calma 5 Norte 0 905.1 -0.7 93
2020-03-19 05:00:00 6.3 3 Norte 7 Noroeste 0 905 -1.2 91
2020-03-19 04:00:00 6.8 4 Noroeste 6 Noroeste 0 905.2 -1.2 89
2020-03-19 03:00:00 8.4 3 Norte 8 Nordeste 0 905.8 -1.1 86
2020-03-19 02:00:00 8.2 5 Nordeste 7 Nordeste 0 906.2 -1 87
2020-03-19 01:00:00 7.7 2 Norte 5 Norte 0 906.4 -0.9 87
2020-03-19 00:00:00 8.2 0 Calma 6 Noroeste 0 906.9 -0.4 87
2020-03-18 23:00:00 8.5 3 Noroeste 4 Noroeste 0 907.2 0 85
2020-03-18 22:00:00 9.6 0 Calma 8 Noroeste 0 907.3 0.2 81
2020-03-18 21:00:00 10.7 3 Noroeste 7 Noroeste 0 907.3 0.1 73
2020-03-18 20:00:00 13.3 6 Sudeste 11 Sudeste 0 907.2 -0.3 57
2020-03-18 19:00:00 15.5 9 Sudeste 17 Sudeste 0 907.1 -0.8 50
2020-03-18 18:00:00 17 10 Sudeste 18 Sudeste 0 907.2 -0.8 47
2020-03-18 17:00:00 17.8 11 Sudeste 21 Sudeste 0 907.5 -1.3 45
2020-03-18 16:00:00 18.4 10 Sudeste 18 Sudeste 0 907.9 -1.4 45
2020-03-18 15:00:00 18 7 Sudeste 32 Sudeste 0 908 -1.8 50
2020-03-18 14:00:00 17.5 5 Este 25 Sudeste 0 908.8 -1.5 54
2020-03-18 13:00:00 16.3 3 Nordeste 14 Este 0 909.3 -1.2 58
2020-03-18 12:00:00 14.1 4 Oeste 9 Nordeste 0 909.8 -0.4 65
2020-03-18 11:00:00 13.3 4 Este 12 Este 0 910.3 -0.1 66
2020-03-18 10:00:00 11.8 2 Nordeste 9 Nordeste 0 910.5 0 74
2020-03-18 09:00:00 9.7 2 Nordeste 8 Noroeste 0 910.2 -0.1 90
2020-03-18 08:00:00 8.4 5 Noroeste 8 Noroeste 0 910.4 0 91
2020-03-18 07:00:00 8.8 0 Calma 5 Noroeste 0 910.5 0 90
2020-03-18 06:00:00 9.1 2 Noroeste 6 Nordeste 0 910.3 -0.6 87
2020-03-18 05:00:00 9.3 2 Nordeste 5 Nordeste 0 910.4 -0.8 87
2020-03-18 04:00:00 9.5 3 Nordeste 9 Nordeste 0 910.5 -1.1 85
2020-03-18 03:00:00 9.6 3 Nordeste 6 Nordeste 0 910.9 -0.9 85
2020-03-18 02:00:00 9.8 4 Este 9 Este 0 911.2 -0.8 84
2020-03-18 01:00:00 9.8 5 Este 9 Este 0 911.6 0 85
2020-03-18 00:00:00 9.8 5 Nordeste 10 Nordeste 0 911.8 0.6 85
2020-03-17 23:00:00 9.3 3 Norte 8 Noroeste 0 912 1.4 90
2020-03-17 22:00:00 8.7 5 Noroeste 9 Noroeste 0 911.6 1.4 91
2020-03-17 21:00:00 7.8 0 Calma 10 Este 0 911.2 1.5 85
2020-03-17 20:00:00 9.7 6 Nordeste 17 Este 0 910.6 1.2 76
2020-03-17 19:00:00 11.7 8 Este 20 Este 0 910.2 1.1 70
2020-03-17 18:00:00 12.3 12 Este 21 Sudeste 0 909.7 1 66
2020-03-17 17:00:00 12.3 13 Este 31 Sudeste 0 909.4 0.6 65
2020-03-17 16:00:00 12.6 18 Sudeste 34 Sudeste 0 909.1 0.3 62
2020-03-17 15:00:00 12.9 23 Sudeste 35 Sudeste 0 908.7 -0.4 61
2020-03-17 14:00:00 12.8 22 Sudeste 38 Sudeste 0 908.8 -0.2 61
2020-03-17 13:00:00 12.9 18 Este 35 Este 0 908.8 -0.1 59
2020-03-17 12:00:00 13.2 14 Este 27 Sudeste 0 909.1 0.8 58
2020-03-17 11:00:00 10.6 11 Este 29 Este 0 909 1.2 59
2020-03-17 10:00:00 9.7 14 Este 24 Este 0 908.9 2 59
2020-03-17 09:00:00 8.7 8 Este 23 Este 0 908.3 2 59
2020-03-17 08:00:00 8.7 11 Este 19 Sudeste 0 907.8 2.4 58
2020-03-17 07:00:00 8.6 6 Este 15 Este 0 906.9 1.3 57
2020-03-17 06:00:00 8.9 10 Este 18 Nordeste 0 906.3 0.8 55
2020-03-17 05:00:00 8.5 9 Nordeste 22 Nordeste 0 905.4 0.2 55
2020-03-17 04:00:00 8.4 8 Nordeste 21 Nordeste 0 905.6 0.7 53
2020-03-17 03:00:00 7.8 8 Nordeste 18 Nordeste 0 905.5 0.8 52
2020-03-17 02:00:00 7.1 8 Norte 17 Nordeste 0 905.2 0.9 51
2020-03-17 01:00:00 6.3 8 Norte 13 Norte 0 904.9 0.7 51
2020-03-17 00:00:00 6.7 7 Norte 16 Norte 0 904.7 1.3 50
2020-03-16 23:00:00 6.4 10 Noroeste 18 Noroeste 0 904.3 1.2 51
2020-03-16 22:00:00 5 6 Noroeste 17 Norte 0 904.2 2.2 52
2020-03-16 21:00:00 5.3 13 Norte 26 Noroeste 0 903.4 2.1 49
2020-03-16 20:00:00 6 11 Norte 28 Norte 0 903.1 1.8 50
2020-03-16 19:00:00 8.5 13 Nordeste 32 Nordeste 0 902 1.7 44
2020-03-16 18:00:00 9.7 17 Nordeste 31 Nordeste 0 901.3 1.2 42
2020-03-16 17:00:00 9.3 15 Norte 41 Norte 0 901.3 1.3 42
2020-03-16 16:00:00 10.7 21 Norte 43 Norte 0 900.3 0 42
2020-03-16 15:00:00 9.9 20 Norte 39 Nordeste 0 900.1 0.4 41
2020-03-16 14:00:00 10.2 21 Norte 39 Norte 0 900 0.5 42
2020-03-16 13:00:00 10 18 Noroeste 35 Noroeste 0 900.3 1.4 52
2020-03-16 12:00:00 7.6 24 Noroeste 49 Noroeste 0 899.7 0.9 56
2020-03-16 11:00:00 6.3 24 Noroeste 46 Noroeste 0 899.5 1.6 61
2020-03-16 10:00:00 4 30 Noroeste 43 Noroeste 0 898.9 1.9 68
2020-03-16 09:00:00 2.9 23 Noroeste 36 Noroeste 0 898.8 1.9 73
2020-03-16 08:00:00 2 25 Noroeste 40 Noroeste 0 897.9 1.8 76
2020-03-16 07:00:00 1.9 23 Noroeste 39 Noroeste 0 897 0.8 76
2020-03-16 06:00:00 2.2 22 Noroeste 42 Noroeste 0 896.9 0.2 77
2020-03-16 05:00:00 2 29 Noroeste 42 Noroeste 0 896.1 -0.2 78
2020-03-16 04:00:00 2.3 28 Noroeste 37 Noroeste 0 896.2 -0.2 76
2020-03-16 03:00:00 2.4 23 Noroeste 39 Noroeste 0 896.7 0.2 77
2020-03-16 02:00:00 2.3 24 Noroeste 38 Noroeste 0 896.3 -0.2 76
2020-03-16 01:00:00 2 22 Noroeste 39 Noroeste 0 896.4 -0.5 78
2020-03-16 00:00:00 2 24 Noroeste 37 Noroeste 0 896.5 0.2 77
2020-03-15 23:00:00 2 23 Noroeste 35 Noroeste 0 896.5 1.2 79
2020-03-15 22:00:00 2.4 18 Noroeste 36 Noroeste 0 896.9 2.5 77
2020-03-15 21:00:00 2.2 18 Noroeste 43 Noroeste 0 896.3 2.9 82
2020-03-15 20:00:00 3 36 Noroeste 71 Noroeste 0 895.3 1.5 74
2020-03-15 19:00:00 4.6 36 Oeste 70 Oeste 0 894.4 -0.1 67
2020-03-15 18:00:00 9.6 23 Noroeste 40 Oeste 0 893.4 -1.6 59
2020-03-15 17:00:00 15.5 7 Oeste 28 Noroeste 0 893.8 -1.8 35
2020-03-15 16:00:00 13.1 14 Noroeste 31 Noroeste 0 894.5 -1.5 45
2020-03-15 15:00:00 12.8 13 Noroeste 26 Norte 0 895 -1.6 48
2020-03-15 14:00:00 13.2 17 Norte 29 Norte 0 895.6 -1.8 46
2020-03-15 13:00:00 13.5 10 Nordeste 20 Nordeste 0 896 -2.3 48
2020-03-15 12:00:00 13.5 7 Este 15 Sudeste 0 896.6 -1.8 48
2020-03-15 11:00:00 11.8 8 Sudeste 14 Sudeste 0 897.4 -1.1 48
2020-03-15 10:00:00 10 7 Este 13 Este 0 898.3 -0.6 55
2020-03-15 09:00:00 6.7 3 Norte 6 Nordeste 0 898.4 -0.8 76
2020-03-15 08:00:00 0 5 Noroeste 9 Noroeste 0 898.5 -1.3 89
2020-03-15 07:00:00 -0.1 5 Noroeste 8 Noroeste 0 898.9 -1.5 87
2020-03-15 06:00:00 0.8 5 Noroeste 7 Noroeste 0 899.2 -2 85
2020-03-15 05:00:00 1.4 3 Norte 8 Noroeste 0 899.8 -1.8 85
2020-03-15 04:00:00 2.1 6 Noroeste 10 Noroeste 0 900.4 -1.9 82
2020-03-15 03:00:00 4.2 3 Norte 8 Nordeste 0 901.2 -1.6 78
2020-03-15 02:00:00 3.5 2 Norte 7 Noroeste 0 901.6 -1.3 80
2020-03-15 01:00:00 4.3 4 Noroeste 8 Noroeste 0 902.3 -0.8 79
2020-03-15 00:00:00 4.4 3 Noroeste 8 Noroeste 0 902.8 -0.3 77
2020-03-14 23:00:00 6.1 4 Noroeste 9 Norte 0 902.9 -0.2 70
2020-03-14 22:00:00 6.7 4 Norte 6 Noroeste 0 903.1 0.2 70
2020-03-14 21:00:00 7.9 3 Noroeste 6 Noroeste 0 903.1 0.1 62
2020-03-14 20:00:00 11.8 3 Sur 12 Sudeste 0 903.1 0 41
2020-03-14 19:00:00 15.4 8 Sudeste 22 Sudeste 0 902.9 -0.4 36
2020-03-14 18:00:00 16.5 12 Sudeste 23 Sudeste 0 903 -0.7 35
2020-03-14 17:00:00 17.3 12 Sudeste 24 Sudeste 0 903.1 -1.2 34
2020-03-14 16:00:00 17.4 13 Sudeste 24 Sur 0 903.3 -1.5 33
2020-03-14 15:00:00 17.2 11 Sudeste 23 Sur 0 903.7 -1.3 34
2020-03-14 14:00:00 16.3 14 Sudeste 31 Sudeste 0 904.3 -1.4 36
2020-03-14 13:00:00 15.4 9 Sudeste 18 Sudeste 0 904.8 -0.7 41
2020-03-14 12:00:00 13.6 6 Sudeste 14 Sudeste 0 905 -0.4 45
2020-03-14 11:00:00 11.2 5 Sudeste 11 Sudeste 0 905.7 0.7 55
2020-03-14 10:00:00 8.7 4 Sur 8 Sudeste 0 905.5 0.7 70
2020-03-14 09:00:00 5.5 2 Sudeste 6 Este 0.1 905.4 0.7 96
2020-03-14 08:00:00 -0.1 0 Calma 5 Norte 0 905 0.6 96
2020-03-14 07:00:00 0 2 Noroeste 5 Nordeste 0 904.8 0 96
2020-03-14 06:00:00 1.2 3 Nordeste 9 Noroeste 0 904.7 -0.5 96
2020-03-14 05:00:00 1.3 3 Noroeste 8 Noroeste 0 904.4 -0.9 96
2020-03-14 04:00:00 1.3 0 Calma 5 Norte 0 904.8 -0.7 96
2020-03-14 03:00:00 2.4 4 Noroeste 6 Noroeste 0 905.2 -0.4 96
2020-03-14 02:00:00 2 4 Noroeste 7 Noroeste 0 905.3 -0.5 94
2020-03-14 01:00:00 2.9 2 Norte 7 Norte 0 905.5 0.5 93
2020-03-14 00:00:00 4.4 0 Calma 4 Norte 0 905.6 0.9 90
2020-03-13 23:00:00 6.5 0 Calma 6 Sur 0 905.8 1.8 85
2020-03-13 22:00:00 7.8 2 Sur 17 Sudeste 0 905 1.6 79
2020-03-13 21:00:00 9 6 Norte 10 Norte 0 904.7 1.7 79
2020-03-13 20:00:00 10.9 0 Calma 10 Sudeste 0 904 1 65
2020-03-13 19:00:00 14 8 Sudeste 18 Sudeste 0 903.4 0 56
2020-03-13 18:00:00 15.2 13 Sudeste 20 Sudeste 0 903 -0.7 53
2020-03-13 17:00:00 16.2 12 Sudeste 18 Nordeste 0 903 -1.3 52
2020-03-13 16:00:00 16.6 2 Sur 10 Este 0 903.4 -1.4 52
2020-03-13 15:00:00 15.2 4 Sudeste 14 Sudeste 0 903.7 -1.5 54
2020-03-13 14:00:00 14.4 6 Este 12 Este 0 904.3 -1.1 56
2020-03-13 13:00:00 13.3 5 Este 12 Este 0 904.8 -0.5 61
2020-03-13 12:00:00 11.1 3 Sur 10 Sudeste 0 905.2 0 68
2020-03-13 11:00:00 10.2 3 Este 12 Sudeste 0 905.4 0.4 70
2020-03-13 10:00:00 8.9 0 Calma 10 Sudeste 0 905.3 0.6 81
2020-03-13 09:00:00 7.6 5 Sur 8 Sur 0 905.2 1 87
2020-03-13 08:00:00 7.2 3 Sudoeste 6 Sur 0 905 0.7 88
2020-03-13 07:00:00 7.4 4 Sur 5 Sur 0 904.7 0.2 88
2020-03-13 06:00:00 7.8 3 Sudeste 10 Sudeste 0 904.2 -0.4 87
2020-03-13 05:00:00 8.6 6 Sur 11 Sudeste 0 904.3 -0.6 87
2020-03-13 04:00:00 8.9 0 Calma 5 Sur 0 904.5 -0.7 85
2020-03-13 03:00:00 8.9 0 Calma 4 Sur 0 904.6 -0.6 85
2020-03-13 02:00:00 8.8 3 Sur 7 Sur 0 904.9 -0.1 85
2020-03-13 01:00:00 8.7 4 Sur 12 Sur 0 905.2 0.7 84
2020-03-13 00:00:00 10.1 8 Sur 15 Sur 0 905.2 1 82
2020-03-12 23:00:00 11.2 9 Sur 17 Sur 0 905 1.8 78
2020-03-12 22:00:00 12 7 Sur 19 Este 0 904.5 1.7 76
2020-03-12 21:00:00 13.8 9 Este 24 Norte 0 904.2 1.6 67
2020-03-12 20:00:00 13.9 9 Norte 18 Norte 0 903.2 0.6 64
2020-03-12 19:00:00 15.2 10 Norte 20 Noroeste 0 902.8 0.2 59
2020-03-12 18:00:00 17 11 Norte 19 Norte 0 902.6 -0.5 52
2020-03-12 17:00:00 18.7 8 Nordeste 15 Nordeste 0 902.6 -1 45
2020-03-12 16:00:00 19.7 8 Este 17 Nordeste 0 902.6 -1.7 44
2020-03-12 15:00:00 19.8 7 Nordeste 17 Nordeste 0 903.1 -1.6 43
2020-03-12 14:00:00 18.9 8 Este 20 Sudeste 0 903.6 -1.3 44
2020-03-12 13:00:00 19.1 6 Sudeste 15 Sudeste 0 904.3 -0.5 45
2020-03-12 12:00:00 18.6 5 Sudeste 12 Sudeste 0 904.7 0 46
2020-03-12 11:00:00 15.6 0 Calma 4 Sudeste 0 904.9 0.5 53
2020-03-12 10:00:00 13.8 0 Calma 6 Noroeste 0 904.8 0.7 70
2020-03-12 09:00:00 10.2 4 Noroeste 6 Noroeste 0 904.7 0.4 87
2020-03-12 08:00:00 6.3 5 Noroeste 11 Noroeste 0 904.4 0 88
2020-03-12 07:00:00 7.2 7 Noroeste 10 Noroeste 0 904.1 -0.6 87
2020-03-12 06:00:00 7.4 5 Noroeste 9 Noroeste 0 904.3 -1 84
2020-03-12 05:00:00 7.6 6 Noroeste 9 Noroeste 0 904.4 -1.2 81
2020-03-12 04:00:00 7.7 3 Noroeste 8 Noroeste 0 904.7 -1.2 77
2020-03-12 03:00:00 8.3 3 Noroeste 10 Noroeste 0 905.3 -0.8 73
2020-03-12 02:00:00 8.8 3 Norte 11 Noroeste 0 905.6 -0.6 70
2020-03-12 01:00:00 9.7 4 Noroeste 11 Noroeste 0 905.9 -0.3 68
2020-03-12 00:00:00 11.2 8 Noroeste 15 Noroeste 0 906.1 -0.1 65
2020-03-11 23:00:00 12.6 4 Noroeste 10 Oeste 0 906.2 0.1 58
2020-03-11 22:00:00 11.4 5 Noroeste 14 Noroeste 0 906.2 0.3 64
2020-03-11 21:00:00 13.1 9 Noroeste 12 Noroeste 0 906.2 0.4 52
2020-03-11 20:00:00 15.2 3 Norte 7 Norte 0 906.1 0.3 46
2020-03-11 19:00:00 18.3 0 Calma 12 Norte 0 905.9 -0.3 42
2020-03-11 18:00:00 20.9 6 Norte 16 Este 0 905.8 -0.9 36
2020-03-11 17:00:00 22 8 Nordeste 14 Nordeste 0 905.8 -1.6 36
2020-03-11 16:00:00 21.3 9 Este 22 Este 0 906.2 -1.8 37
2020-03-11 15:00:00 20.7 10 Nordeste 18 Este 0 906.7 -1.7 39
2020-03-11 14:00:00 19.4 8 Nordeste 14 Este 0 907.4 -1.3 39
2020-03-11 13:00:00 18 3 Sur 12 Este 0 908 -0.5 40
2020-03-11 12:00:00 16.7 4 Sudeste 14 Sudeste 0 908.4 0.2 41
2020-03-11 11:00:00 15.2 6 Sudeste 16 Sudeste 0 908.7 0.7 43
2020-03-11 10:00:00 14.5 6 Sur 9 Sudeste 0 908.5 0.4 51
2020-03-11 09:00:00 11 3 Sudeste 10 Noroeste 0 908.2 0.2 67
2020-03-11 08:00:00 5 7 Noroeste 9 Noroeste 0 908 0.2 84
2020-03-11 07:00:00 4.4 6 Noroeste 11 Noroeste 0 908.1 0 83
2020-03-11 06:00:00 5.5 5 Noroeste 12 Noroeste 0 908 -0.5 81
2020-03-11 05:00:00 6.4 9 Noroeste 12 Noroeste 0 907.8 -1 73
2020-03-11 04:00:00 6.3 4 Norte 7 Norte 0 908.1 -0.9 68
2020-03-11 03:00:00 7.6 4 Este 9 Noroeste 0 908.5 -0.6 58
2020-03-11 02:00:00 8.3 5 Noroeste 10 Noroeste 0 908.8 -0.4 61
2020-03-11 01:00:00 7.7 5 Norte 10 Noroeste 0 909 -0.1 65
2020-03-11 00:00:00 9.4 4 Noroeste 13 Noroeste 0 909.1 -0.1 58
2020-03-10 23:00:00 11.1 10 Noroeste 16 Noroeste 0 909.2 0.2 49
2020-03-10 22:00:00 11.7 10 Noroeste 23 Norte 0 909.1 0.1 44
2020-03-10 21:00:00 13.2 13 Norte 19 Norte 0 909.2 0.5 37
2020-03-10 20:00:00 12.1 10 Noroeste 13 Noroeste 0 909 0.1 43
2020-03-10 19:00:00 18.4 6 Noroeste 19 Noroeste 0 909 0 28
2020-03-10 18:00:00 22 8 Norte 22 Norte 0 908.7 -0.4 26
2020-03-10 17:00:00 22.3 6 Este 14 Este 0 908.9 -0.7 33
2020-03-10 16:00:00 21.8 3 Norte 16 Nordeste 0 909 -1.2 36
2020-03-10 15:00:00 21 8 Sudeste 14 Sudeste 0 909.1 -1.3 39
2020-03-10 14:00:00 20.4 5 Sudeste 13 Sudeste 0 909.6 -0.8 39
2020-03-10 13:00:00 18.9 2 Sudeste 14 Sudeste 0 910.2 -0.1 43
2020-03-10 12:00:00 16.4 4 Este 12 Nordeste 0 910.4 0.5 49
2020-03-10 11:00:00 15.5 3 Sudeste 10 Sur 0 910.4 0.6 51
2020-03-10 10:00:00 13.3 2 Sudeste 8 Sur 0 910.3 0.7 57
2020-03-10 09:00:00 9.7 0 Calma 8 Norte 0 909.9 0.2 75
2020-03-10 08:00:00 5.9 5 Norte 8 Norte 0 909.8 0.2 87
2020-03-10 07:00:00 5.8 3 Norte 8 Noroeste 0 909.6 0.1 85
2020-03-10 06:00:00 6.1 0 Calma 7 Oeste 0 909.7 -0.2 81
2020-03-10 05:00:00 7.2 0 Calma 9 Norte 0 909.6 -0.3 77
2020-03-10 04:00:00 7.8 4 Sur 11 Sur 0 909.5 -0.8 69
2020-03-10 03:00:00 8.7 6 Sur 10 Sur 0 909.9 -0.9 68
2020-03-10 02:00:00 7.6 4 Este 11 Sudeste 0 909.9 -1.1 69
2020-03-10 01:00:00 9 0 Calma 22 Noroeste 0 910.3 -0.5 62
2020-03-10 00:00:00 9.6 9 Noroeste 17 Noroeste 0 910.8 0 61
2020-03-09 23:00:00 9.6 10 Noroeste 14 Noroeste 0 911 0.6 60
2020-03-09 22:00:00 9.5 9 Noroeste 23 Noroeste 0 910.8 0.6 56
2020-03-09 21:00:00 10.4 18 Noroeste 24 Noroeste 0 910.8 1 53
2020-03-09 20:00:00 10.3 14 Noroeste 21 Noroeste 0 910.4 0.4 53
2020-03-09 19:00:00 12.8 13 Noroeste 28 Noroeste 0 910.2 0.1 39
2020-03-09 18:00:00 14.3 18 Noroeste 28 Norte 0 909.8 -0.1 36
2020-03-09 17:00:00 15 16 Noroeste 34 Noroeste 0 910 -0.7 32
2020-03-09 16:00:00 14.8 20 Noroeste 36 Noroeste 0 910.1 -1 29
2020-03-09 15:00:00 14.9 17 Noroeste 34 Noroeste 0 909.9 -1.2 29
2020-03-09 14:00:00 13.1 6 Norte 27 Norte 0 910.7 -0.1 29
2020-03-09 13:00:00 13.5 18 Noroeste 33 Noroeste 0 911.1 0.8 28
2020-03-09 12:00:00 13.5 18 Noroeste 28 Noroeste 0 911.1 1 29
2020-03-09 11:00:00 11.7 12 Norte 26 Norte 0 910.8 0.9 44
2020-03-09 10:00:00 8.4 11 Norte 26 Noroeste 0 910.3 0.8 60
2020-03-09 09:00:00 5.6 17 Noroeste 27 Noroeste 0 910.1 1.2 72
2020-03-09 08:00:00 3.8 16 Noroeste 21 Noroeste 0 909.9 1.2 76
2020-03-09 07:00:00 4.3 6 Noroeste 26 Noroeste 0 909.5 0 75
2020-03-09 06:00:00 4.6 12 Oeste 18 Oeste 0 908.9 -0.3 74
2020-03-09 05:00:00 5 6 Oeste 18 Noroeste 0 908.7 -0.6 71
2020-03-09 04:00:00 5.3 0 Calma 27 Norte 0 909.5 0.6 69
2020-03-09 03:00:00 5.9 8 Oeste 21 Sudoeste 0 909.2 0.2 68
2020-03-09 02:00:00 6.3 4 Oeste 50 Noroeste 0 909.3 0.5 66
2020-03-09 01:00:00 6.7 31 Noroeste 65 Noroeste 0 908.9 0.1 66
2020-03-09 00:00:00 6.8 32 Noroeste 49 Noroeste 0 909 0.7 67
2020-03-08 23:00:00 7 14 Noroeste 32 Noroeste 0 908.8 0.9 66
2020-03-08 22:00:00 7.8 15 Noroeste 42 Noroeste 0 908.8 1 68
2020-03-08 21:00:00 8.4 22 Noroeste 36 Noroeste 0 908.3 1.2 64
2020-03-08 20:00:00 9.4 21 Noroeste 35 Oeste 0 907.9 0.9 62
2020-03-08 19:00:00 10.5 21 Noroeste 36 Oeste 0 907.8 0.2 56
2020-03-08 18:00:00 13.1 26 Oeste 48 Noroeste 0 907.1 -0.3 50
2020-03-08 17:00:00 13.2 27 Oeste 40 Noroeste 0 907 -0.4 51
2020-03-08 16:00:00 13.4 28 Noroeste 45 Noroeste 0 907.6 -0.4 54
2020-03-08 15:00:00 13 23 Noroeste 42 Oeste 0 907.4 -0.4 56
2020-03-08 14:00:00 14.2 31 Noroeste 42 Noroeste 0 907.4 -0.5 55
2020-03-08 13:00:00 12.9 4 Sudoeste 16 Sudeste 0 908 0.2 66
2020-03-08 12:00:00 9.9 13 Sudeste 33 Noroeste 0 907.8 0.1 72
2020-03-08 11:00:00 11.1 25 Noroeste 35 Noroeste 0 907.9 0.6 74
2020-03-08 10:00:00 11.6 3 Sudeste 10 Este 0 907.8 1 68
2020-03-08 09:00:00 7.2 4 Oeste 10 Oeste 0 907.7 0.9 81
2020-03-08 08:00:00 4.5 0 Calma 8 Norte 0 907.3 0.3 92
2020-03-08 07:00:00 4.7 0 Calma 9 Norte 0 906.8 -0.3 92
2020-03-08 06:00:00 3.5 8 Noroeste 10 Oeste 0 906.8 -0.7 94
2020-03-08 05:00:00 1.6 0 Calma 6 Noroeste 0 907 -0.8 94
2020-03-08 04:00:00 2.2 3 Noroeste 9 Norte 0 907.1 -1.1 92
2020-03-08 03:00:00 2.8 6 Noroeste 9 Noroeste 0 907.5 -0.9 90
2020-03-08 02:00:00 4.4 3 Oeste 18 Noroeste 0 907.8 -0.9 83
2020-03-08 01:00:00 3.9 7 Norte 10 Nordeste 0 908.2 -0.6 89
2020-03-08 00:00:00 1.8 3 Noroeste 6 Noroeste 0 908.4 -0.6 91
2020-03-07 23:00:00 3.4 0 Calma 9 Noroeste 0 908.7 -0.2 86
2020-03-07 22:00:00 5.6 3 Sudeste 8 Noroeste 0 908.8 0.3 78
2020-03-07 21:00:00 7.7 5 Oeste 20 Norte 0 909 0.7 71
2020-03-07 20:00:00 9.3 14 Norte 18 Noroeste 0 908.9 0.9 67
2020-03-07 19:00:00 11.8 12 Norte 26 Norte 0 908.5 0.4 57
2020-03-07 18:00:00 16.3 10 Nordeste 18 Nordeste 0 908.3 0 38
2020-03-07 17:00:00 16.8 8 Este 20 Nordeste 0 908 -0.9 36
2020-03-07 16:00:00 15.6 9 Norte 21 Nordeste 0 908.1 -1.4 37
2020-03-07 15:00:00 15.2 6 Norte 14 Nordeste 0 908.3 -1.5 38
2020-03-07 14:00:00 14.9 8 Sudeste 25 Sudeste 0 908.9 -0.7 41
2020-03-07 13:00:00 12.9 9 Sudeste 21 Sudeste 0 909.5 0 48
2020-03-07 12:00:00 11.6 5 Sudeste 14 Sudeste 0 909.8 0.1 51
2020-03-07 11:00:00 9.6 4 Sudoeste 25 Norte 0 909.6 0.2 60
2020-03-07 10:00:00 7 13 Norte 34 Noroeste 0 909.5 0.6 72
2020-03-07 09:00:00 6 17 Noroeste 31 Noroeste 0 909.7 1.5 82
2020-03-07 08:00:00 5.3 14 Noroeste 26 Noroeste 0 909.4 1.3 82
2020-03-07 07:00:00 5.1 9 Noroeste 26 Noroeste 0 908.9 0.7 87
2020-03-07 06:00:00 4.9 14 Noroeste 22 Noroeste 0 908.2 -0.1 89
2020-03-07 05:00:00 5.2 10 Noroeste 23 Noroeste 0 908.1 0 85
2020-03-07 04:00:00 5.3 19 Noroeste 35 Noroeste 0 908.2 0 84
2020-03-07 03:00:00 5.5 19 Noroeste 35 Noroeste 0 908.3 0 81
2020-03-07 02:00:00 5.1 23 Noroeste 43 Noroeste 0 908.1 0.4 81
2020-03-07 01:00:00 4.9 21 Noroeste 41 Noroeste 0 908.2 0.9 79
2020-03-07 00:00:00 4.6 28 Noroeste 44 Noroeste 0 908.3 1.7 77
2020-03-06 23:00:00 4.3 27 Noroeste 54 Noroeste 0 907.7 1.5 72
2020-03-06 22:00:00 4.1 30 Noroeste 50 Noroeste 0 907.3 2.3 68
2020-03-06 21:00:00 4 30 Noroeste 51 Noroeste 0 906.6 1.5 65
2020-03-06 20:00:00 4.3 25 Noroeste 54 Noroeste 0 906.2 1.8 66
2020-03-06 19:00:00 5.1 33 Noroeste 53 Noroeste 0 905 1.1 65
2020-03-06 18:00:00 6.4 33 Noroeste 55 Noroeste 0 905.1 1.1 61
2020-03-06 17:00:00 6.4 33 Noroeste 54 Noroeste 0 904.4 0.6 61
2020-03-06 16:00:00 7.1 22 Noroeste 45 Noroeste 0 903.9 0.5 53
2020-03-06 15:00:00 6.2 26 Noroeste 46 Noroeste 0 904 0.9 67
2020-03-06 14:00:00 6.1 23 Noroeste 46 Oeste 0 903.8 1.3 65
2020-03-06 13:00:00 6.5 27 Noroeste 52 Norte 0 903.4 2.3 63
2020-03-06 12:00:00 5.9 28 Noroeste 66 Noroeste 0 903.1 3.4 66
2020-03-06 11:00:00 4.2 30 Noroeste 59 Noroeste 0 902.5 3.6 77
2020-03-06 10:00:00 3.5 31 Noroeste 57 Noroeste 0 901.1 2.8 82
2020-03-06 09:00:00 3 36 Noroeste 62 Noroeste 0 899.7 1.9 80
2020-03-06 08:00:00 3.2 41 Noroeste 78 Noroeste 0 898.9 1.8 81
2020-03-06 07:00:00 3.1 31 Noroeste 59 Noroeste 0 898.3 0.9 85
2020-03-06 06:00:00 3.2 28 Noroeste 54 Noroeste 0.2 897.8 0.2 83
2020-03-06 05:00:00 2.9 23 Noroeste 57 Noroeste 0 897.1 -0.5 88
2020-03-06 04:00:00 3.4 32 Noroeste 50 Noroeste 0.1 897.4 -0.8 86
2020-03-06 03:00:00 3.6 28 Noroeste 58 Noroeste 0.1 897.6 -0.6 86
2020-03-06 02:00:00 4.2 27 Oeste 45 Noroeste 0.2 897.6 -1.2 79
2020-03-06 01:00:00 4.9 6 Noroeste 15 Noroeste 0 898.2 -0.9 85
2020-03-06 00:00:00 5 10 Oeste 32 Oeste 0 898.2 -1.1 82
2020-03-05 23:00:00 4.7 23 Oeste 44 Noroeste 0.1 898.8 -0.8 79
2020-03-05 22:00:00 4.6 28 Noroeste 42 Oeste 0 899.1 0 82
2020-03-05 21:00:00 4.8 20 Noroeste 32 Noroeste 0 899.3 0.8 77
2020-03-05 20:00:00 5.1 19 Noroeste 33 Noroeste 0.2 899.6 1.8 77
2020-03-05 19:00:00 5.8 18 Noroeste 37 Noroeste 0.1 899.1 2.5 82
2020-03-05 18:00:00 5.8 24 Noroeste 45 Noroeste 0.1 898.5 1.8 89
2020-03-05 17:00:00 6.2 27 Noroeste 51 Noroeste 0.4 897.8 2.3 88
2020-03-05 16:00:00 8.7 28 Noroeste 57 Noroeste 0.1 896.6 1.5 70
2020-03-05 15:00:00 10.5 26 Noroeste 54 Noroeste 0 896.7 1.9 64
2020-03-05 14:00:00 10.4 35 Noroeste 59 Noroeste 0 895.5 0.5 66
2020-03-05 13:00:00 11.1 38 Noroeste 56 Oeste 0 895.1 1 62
2020-03-05 12:00:00 9.7 42 Oeste 62 Oeste 0 894.8 1.6 65
2020-03-05 11:00:00 8.6 36 Noroeste 63 Noroeste 0 895 2 69
2020-03-05 10:00:00 7.9 41 Noroeste 67 Oeste 0 894.1 1.8 67
2020-03-05 09:00:00 7.9 32 Oeste 53 Oeste 0 893.2 1.1 67
2020-03-05 08:00:00 7.3 19 Oeste 51 Noroeste 0 893 -0.1 77
2020-03-05 07:00:00 9 21 Noroeste 42 Noroeste 0.8 892.3 -2 82
2020-03-05 06:00:00 10.4 16 Sudoeste 40 Sudoeste 0.3 892.1 -3.7 83
2020-03-05 05:00:00 11.6 10 Sudoeste 23 Sudoeste 0 893.1 -3.8 73
2020-03-05 04:00:00 12 7 Sudeste 24 Sudoeste 0 894.3 -3.8 71
2020-03-05 03:00:00 12.2 13 Sur 27 Sur 0 895.8 -3.2 72
2020-03-05 02:00:00 11.8 13 Sudoeste 27 Sur 0 896.9 -3.1 83
2020-03-05 01:00:00 10.9 2 Nordeste 17 Sudeste 0 898.1 -2.7 89
2020-03-05 00:00:00 10.9 12 Sudeste 19 Sudeste 0 899 -2.4 88